createdAt,value
2016-12-29T00:00:07.566Z,20
2016-12-29T00:00:48.053Z,20.04
2016-12-29T00:01:28.538Z,20.01
2016-12-29T00:02:09.032Z,20.05
2016-12-29T00:02:49.525Z,20
2016-12-29T00:03:30.018Z,20
2016-12-29T00:04:10.520Z,20.04
2016-12-29T00:04:51.008Z,20.02
2016-12-29T00:05:31.521Z,20.07
2016-12-29T00:06:12.007Z,20.01
2016-12-29T00:06:52.514Z,20.02
2016-12-29T00:07:33.014Z,20.04
2016-12-29T00:08:13.504Z,20.02
2016-12-29T00:08:53.996Z,20
2016-12-29T00:09:34.487Z,19.98
2016-12-29T00:10:14.982Z,20.02
2016-12-29T00:10:55.488Z,19.93
2016-12-29T00:11:35.967Z,19.93
2016-12-29T00:12:16.452Z,20
2016-12-29T00:12:56.941Z,19.93
2016-12-29T00:13:37.437Z,19.97
2016-12-29T00:14:17.935Z,19.97
2016-12-29T00:14:58.427Z,20
2016-12-29T00:15:38.931Z,20.01
2016-12-29T00:16:19.653Z,19.98
2016-12-29T00:17:00.143Z,20
2016-12-29T00:17:40.638Z,19.98
2016-12-29T00:18:21.131Z,19.98
2016-12-29T00:19:01.622Z,19.98
2016-12-29T00:19:42.113Z,19.97
2016-12-29T00:20:22.612Z,20.04
2016-12-29T00:21:03.103Z,20
2016-12-29T00:21:43.612Z,20.02
2016-12-29T00:22:24.101Z,20
2016-12-29T00:23:05.269Z,20.01
2016-12-29T00:23:45.767Z,20.04
2016-12-29T00:24:26.268Z,19.98
2016-12-29T00:25:06.764Z,20
2016-12-29T00:25:47.269Z,19.97
2016-12-29T00:26:27.773Z,19.98
2016-12-29T00:27:08.263Z,20
2016-12-29T00:27:48.770Z,19.92
2016-12-29T00:28:29.267Z,19.95
2016-12-29T00:29:09.771Z,19.89
2016-12-29T00:29:50.274Z,19.97
2016-12-29T00:30:30.767Z,19.97
2016-12-29T00:31:11.258Z,19.89
2016-12-29T00:31:51.766Z,20.02
2016-12-29T00:32:32.252Z,19.95
2016-12-29T00:33:12.742Z,19.98
2016-12-29T00:33:53.238Z,19.98
2016-12-29T00:34:33.738Z,19.93
2016-12-29T00:35:14.235Z,19.97
2016-12-29T00:35:54.731Z,19.92
2016-12-29T00:36:35.214Z,20.04
2016-12-29T00:37:15.715Z,19.95
2016-12-29T00:37:56.209Z,19.97
2016-12-29T00:38:36.706Z,19.89
2016-12-29T00:39:17.215Z,19.95
2016-12-29T00:39:57.714Z,19.9
2016-12-29T00:40:38.206Z,19.93
2016-12-29T00:41:18.700Z,19.92
2016-12-29T00:41:59.203Z,20.02
2016-12-29T00:42:39.706Z,20.08
2016-12-29T00:43:20.213Z,20.05
2016-12-29T00:44:00.708Z,19.89
2016-12-29T00:44:41.199Z,19.95
2016-12-29T00:45:21.702Z,20
2016-12-29T00:46:02.200Z,19.89
2016-12-29T00:46:42.686Z,19.89
2016-12-29T00:47:23.178Z,19.92
2016-12-29T00:48:03.670Z,20.04
2016-12-29T00:48:44.176Z,19.89
2016-12-29T00:49:24.672Z,19.97
2016-12-29T00:50:05.184Z,19.95
2016-12-29T00:50:45.691Z,19.98
2016-12-29T00:51:26.190Z,19.86
2016-12-29T00:52:06.687Z,19.87
2016-12-29T00:52:47.173Z,19.95
2016-12-29T00:53:27.658Z,19.95
2016-12-29T00:54:08.149Z,19.87
2016-12-29T00:54:48.643Z,20
2016-12-29T00:55:29.137Z,20.02
2016-12-29T00:56:09.648Z,19.95
2016-12-29T00:56:50.147Z,19.93
2016-12-29T00:57:30.642Z,19.95
2016-12-29T00:58:11.129Z,20
2016-12-29T00:58:51.614Z,19.98
2016-12-29T00:59:32.096Z,20
2016-12-29T01:00:12.593Z,19.93
2016-12-29T01:00:53.086Z,20.01
2016-12-29T01:01:33.579Z,19.98
2016-12-29T01:02:14.081Z,19.86
2016-12-29T01:02:54.575Z,19.97
2016-12-29T01:03:35.059Z,19.98
2016-12-29T01:04:15.551Z,19.87
2016-12-29T01:04:56.052Z,19.95
2016-12-29T01:05:36.538Z,19.9
2016-12-29T01:06:17.031Z,19.93
2016-12-29T01:06:57.531Z,19.83
2016-12-29T01:07:38.020Z,19.98
2016-12-29T01:08:18.521Z,19.93
2016-12-29T01:08:59.005Z,19.95
2016-12-29T01:09:39.503Z,19.92
2016-12-29T01:10:19.983Z,19.93
2016-12-29T01:11:00.481Z,19.98
2016-12-29T01:11:40.970Z,19.98
2016-12-29T01:12:21.466Z,19.97
2016-12-29T01:13:01.965Z,19.95
2016-12-29T01:13:42.456Z,19.95
2016-12-29T01:14:22.951Z,19.98
2016-12-29T01:15:03.449Z,20.02
2016-12-29T01:15:43.946Z,19.97
2016-12-29T01:16:24.434Z,19.98
2016-12-29T01:17:04.946Z,19.95
2016-12-29T01:17:45.441Z,20
2016-12-29T01:18:25.939Z,20.01
2016-12-29T01:19:06.426Z,19.92
2016-12-29T01:19:46.919Z,19.95
2016-12-29T01:20:27.416Z,19.95
2016-12-29T01:21:07.899Z,19.93
2016-12-29T01:21:48.415Z,19.98
2016-12-29T01:22:28.904Z,19.93
2016-12-29T01:23:09.415Z,19.95
2016-12-29T01:23:49.905Z,19.98
2016-12-29T01:24:30.389Z,19.89
2016-12-29T01:25:10.883Z,19.89
2016-12-29T01:25:51.385Z,20
2016-12-29T01:26:31.877Z,19.98
2016-12-29T01:27:12.384Z,19.98
2016-12-29T01:27:52.868Z,19.89
2016-12-29T01:28:33.381Z,19.89
2016-12-29T01:29:13.871Z,19.86
2016-12-29T01:29:54.376Z,19.95
2016-12-29T01:30:34.869Z,20
2016-12-29T01:31:15.357Z,19.95
2016-12-29T01:31:55.852Z,19.89
2016-12-29T01:32:36.345Z,19.93
2016-12-29T01:33:16.839Z,20.04
2016-12-29T01:33:57.343Z,19.98
2016-12-29T01:34:37.843Z,20
2016-12-29T01:35:18.344Z,20
2016-12-29T01:35:58.828Z,19.95
2016-12-29T01:36:39.319Z,19.86
2016-12-29T01:37:20.031Z,19.97
2016-12-29T01:38:00.527Z,19.9
2016-12-29T01:38:41.019Z,19.9
2016-12-29T01:39:21.512Z,20.01
2016-12-29T01:40:02.004Z,19.97
2016-12-29T01:40:42.500Z,19.87
2016-12-29T01:41:22.992Z,19.86
2016-12-29T01:42:03.501Z,19.93
2016-12-29T01:42:43.996Z,19.92
2016-12-29T01:43:24.494Z,19.89
2016-12-29T01:44:04.990Z,19.9
2016-12-29T01:44:45.496Z,19.97
2016-12-29T01:45:25.979Z,20
2016-12-29T01:46:06.471Z,19.97
2016-12-29T01:46:46.963Z,19.98
2016-12-29T01:47:27.457Z,19.95
2016-12-29T01:48:07.945Z,19.86
2016-12-29T01:48:48.428Z,19.87
2016-12-29T01:49:28.922Z,19.98
2016-12-29T01:50:09.403Z,19.97
2016-12-29T01:50:49.913Z,19.89
2016-12-29T01:51:30.402Z,19.86
2016-12-29T01:52:10.893Z,19.87
2016-12-29T01:52:51.386Z,19.9
2016-12-29T01:53:31.884Z,19.85
2016-12-29T01:54:12.382Z,19.92
2016-12-29T01:54:52.879Z,19.85
2016-12-29T01:55:33.383Z,19.97
2016-12-29T01:56:13.871Z,19.87
2016-12-29T01:56:54.360Z,19.89
2016-12-29T01:57:34.857Z,19.89
2016-12-29T01:58:15.353Z,19.89
2016-12-29T01:58:55.831Z,19.93
2016-12-29T01:59:36.324Z,19.85
2016-12-29T02:00:16.830Z,19.85
2016-12-29T02:00:57.315Z,19.85
2016-12-29T02:01:37.804Z,19.87
2016-12-29T02:02:18.298Z,19.87
2016-12-29T02:02:59.132Z,19.93
2016-12-29T02:03:39.633Z,19.93
2016-12-29T02:04:20.136Z,19.83
2016-12-29T02:05:00.632Z,19.98
2016-12-29T02:05:41.132Z,19.97
2016-12-29T02:06:21.626Z,19.9
2016-12-29T02:07:02.128Z,19.92
2016-12-29T02:07:42.621Z,19.86
2016-12-29T02:08:23.118Z,19.86
2016-12-29T02:09:03.624Z,19.83
2016-12-29T02:09:44.130Z,19.89
2016-12-29T02:10:24.625Z,19.86
2016-12-29T02:11:05.122Z,19.9
2016-12-29T02:11:45.614Z,19.92
2016-12-29T02:12:26.102Z,19.87
2016-12-29T02:13:06.587Z,19.93
2016-12-29T02:13:47.097Z,19.86
2016-12-29T02:14:27.586Z,19.89
2016-12-29T02:15:08.096Z,19.89
2016-12-29T02:15:48.583Z,19.83
2016-12-29T02:16:29.094Z,19.85
2016-12-29T02:17:09.580Z,19.89
2016-12-29T02:17:50.074Z,19.85
2016-12-29T02:18:30.568Z,19.92
2016-12-29T02:19:11.061Z,19.89
2016-12-29T02:19:51.563Z,19.82
2016-12-29T02:20:32.059Z,19.9
2016-12-29T02:21:12.567Z,19.87
2016-12-29T02:21:53.066Z,19.92
2016-12-29T02:22:33.562Z,19.87
2016-12-29T02:24:31.246Z,19.89
2016-12-29T02:25:11.747Z,19.93
2016-12-29T02:25:52.243Z,19.89
2016-12-29T02:26:32.738Z,19.87
2016-12-29T02:27:13.226Z,19.92
2016-12-29T02:27:53.714Z,19.92
2016-12-29T02:28:34.218Z,19.89
2016-12-29T02:29:14.707Z,19.92
2016-12-29T02:29:55.209Z,19.86
2016-12-29T02:30:35.708Z,19.89
2016-12-29T02:31:16.214Z,19.89
2016-12-29T02:31:56.706Z,19.86
2016-12-29T02:32:37.213Z,19.87
2016-12-29T02:33:17.706Z,19.92
2016-12-29T02:33:58.207Z,19.85
2016-12-29T02:34:38.708Z,19.92
2016-12-29T02:35:19.212Z,19.92
2016-12-29T02:35:59.700Z,19.9
2016-12-29T02:36:40.210Z,19.92
2016-12-29T02:37:20.696Z,19.83
2016-12-29T02:38:01.187Z,19.85
2016-12-29T02:38:41.670Z,19.82
2016-12-29T02:39:22.160Z,19.9
2016-12-29T02:40:02.650Z,19.9
2016-12-29T02:40:43.141Z,19.89
2016-12-29T02:41:23.631Z,19.86
2016-12-29T02:42:04.124Z,19.78
2016-12-29T02:42:44.626Z,19.86
2016-12-29T02:43:25.110Z,19.87
2016-12-29T02:44:05.605Z,19.87
2016-12-29T02:44:46.098Z,19.89
2016-12-29T02:45:26.589Z,19.9
2016-12-29T02:46:07.076Z,19.79
2016-12-29T02:46:47.570Z,19.83
2016-12-29T02:47:28.069Z,19.82
2016-12-29T02:48:08.556Z,19.89
2016-12-29T02:48:49.038Z,19.85
2016-12-29T02:49:29.534Z,19.83
2016-12-29T02:50:10.034Z,19.83
2016-12-29T02:50:50.522Z,19.87
2016-12-29T02:51:31.015Z,19.87
2016-12-29T02:52:11.512Z,19.83
2016-12-29T02:52:52.001Z,19.86
2016-12-29T02:53:32.498Z,19.89
2016-12-29T02:54:12.987Z,19.85
2016-12-29T02:54:53.477Z,19.86
2016-12-29T02:55:33.984Z,19.9
2016-12-29T02:56:14.480Z,19.87
2016-12-29T02:56:54.976Z,19.87
2016-12-29T02:57:35.490Z,19.86
2016-12-29T02:58:15.984Z,19.82
2016-12-29T02:58:56.475Z,19.89
2016-12-29T02:59:36.989Z,19.8
2016-12-29T03:00:17.476Z,19.78
2016-12-29T03:00:57.977Z,19.83
2016-12-29T03:01:38.482Z,19.92
2016-12-29T03:02:18.983Z,19.9
2016-12-29T03:02:59.474Z,19.82
2016-12-29T03:03:40.154Z,19.83
2016-12-29T03:04:20.647Z,19.79
2016-12-29T03:05:01.162Z,19.79
2016-12-29T03:05:41.637Z,19.8
2016-12-29T03:06:22.124Z,19.83
2016-12-29T03:07:02.629Z,19.78
2016-12-29T03:07:43.212Z,19.83
2016-12-29T03:08:23.702Z,19.8
2016-12-29T03:10:11.212Z,19.86
2016-12-29T03:10:51.707Z,19.89
2016-12-29T03:11:32.196Z,19.8
2016-12-29T03:12:12.698Z,19.74
2016-12-29T03:12:53.191Z,19.85
2016-12-29T03:13:33.693Z,19.85
2016-12-29T03:14:14.203Z,19.78
2016-12-29T03:14:54.698Z,19.82
2016-12-29T03:15:35.193Z,19.74
2016-12-29T03:16:15.702Z,19.8
2016-12-29T03:16:56.187Z,19.78
2016-12-29T03:17:36.672Z,19.7
2016-12-29T03:18:17.169Z,19.85
2016-12-29T03:18:57.662Z,19.86
2016-12-29T03:19:38.153Z,19.83
2016-12-29T03:20:18.647Z,19.79
2016-12-29T03:20:59.138Z,19.82
2016-12-29T03:21:39.644Z,19.75
2016-12-29T03:22:20.138Z,19.85
2016-12-29T03:23:00.639Z,19.75
2016-12-29T03:23:41.142Z,19.79
2016-12-29T03:24:21.631Z,19.79
2016-12-29T03:25:02.115Z,19.8
2016-12-29T03:25:42.606Z,19.8
2016-12-29T03:26:23.104Z,19.85
2016-12-29T03:27:03.595Z,19.78
2016-12-29T03:27:44.088Z,19.8
2016-12-29T03:28:24.584Z,19.7
2016-12-29T03:29:05.083Z,19.78
2016-12-29T03:29:45.581Z,19.75
2016-12-29T03:30:26.081Z,19.82
2016-12-29T03:31:06.582Z,19.83
2016-12-29T03:31:47.069Z,19.83
2016-12-29T03:32:27.556Z,19.75
2016-12-29T03:33:08.054Z,19.75
2016-12-29T03:33:48.552Z,19.89
2016-12-29T03:34:29.033Z,19.79
2016-12-29T03:35:09.513Z,19.85
2016-12-29T03:35:50.002Z,19.75
2016-12-29T03:36:30.482Z,19.83
2016-12-29T03:37:10.969Z,19.65
2016-12-29T03:37:51.472Z,19.85
2016-12-29T03:38:31.978Z,19.68
2016-12-29T03:39:12.600Z,19.83
2016-12-29T03:39:53.099Z,19.82
2016-12-29T03:40:33.585Z,19.65
2016-12-29T03:41:14.092Z,19.68
2016-12-29T03:41:54.573Z,19.82
2016-12-29T03:42:35.070Z,19.79
2016-12-29T03:43:15.569Z,19.71
2016-12-29T03:43:56.063Z,19.85
2016-12-29T03:44:36.573Z,19.8
2016-12-29T03:45:17.068Z,19.79
2016-12-29T03:45:57.554Z,19.75
2016-12-29T03:46:38.044Z,19.67
2016-12-29T03:47:18.533Z,19.72
2016-12-29T03:47:59.017Z,19.74
2016-12-29T03:48:39.509Z,19.72
2016-12-29T03:49:20.006Z,19.8
2016-12-29T03:50:00.512Z,19.7
2016-12-29T03:50:41.011Z,19.74
2016-12-29T03:51:21.502Z,19.79
2016-12-29T03:52:01.986Z,19.82
2016-12-29T03:52:42.569Z,19.7
2016-12-29T03:53:23.061Z,19.78
2016-12-29T03:54:03.560Z,19.72
2016-12-29T03:54:44.045Z,19.82
2016-12-29T03:55:24.533Z,19.75
2016-12-29T03:56:05.028Z,19.7
2016-12-29T03:56:45.508Z,19.67
2016-12-29T03:57:26.008Z,19.72
2016-12-29T03:58:06.493Z,19.67
2016-12-29T03:58:46.980Z,19.65
2016-12-29T03:59:27.802Z,19.75
2016-12-29T04:00:08.286Z,19.85
2016-12-29T04:00:48.778Z,19.85
2016-12-29T04:01:29.276Z,19.71
2016-12-29T04:02:09.769Z,19.7
2016-12-29T04:02:50.263Z,19.74
2016-12-29T04:03:30.746Z,19.7
2016-12-29T04:04:11.252Z,19.78
2016-12-29T04:04:51.757Z,19.7
2016-12-29T04:05:32.252Z,19.64
2016-12-29T04:06:12.759Z,19.72
2016-12-29T04:06:53.257Z,19.72
2016-12-29T04:07:33.750Z,19.78
2016-12-29T04:08:14.248Z,19.72
2016-12-29T04:08:54.753Z,19.82
2016-12-29T04:09:35.243Z,19.74
2016-12-29T04:10:15.749Z,19.63
2016-12-29T04:10:56.237Z,19.72
2016-12-29T04:11:36.725Z,19.74
2016-12-29T04:12:17.212Z,19.71
2016-12-29T04:12:57.716Z,19.72
2016-12-29T04:13:38.202Z,19.71
2016-12-29T04:14:18.700Z,19.74
2016-12-29T04:14:59.192Z,19.75
2016-12-29T04:15:39.686Z,19.74
2016-12-29T04:16:20.184Z,19.75
2016-12-29T04:17:00.678Z,19.72
2016-12-29T04:17:41.168Z,19.7
2016-12-29T04:18:21.656Z,19.65
2016-12-29T04:19:02.166Z,19.75
2016-12-29T04:19:42.654Z,19.75
2016-12-29T04:20:23.161Z,19.72
2016-12-29T04:21:03.640Z,19.78
2016-12-29T04:21:44.136Z,19.71
2016-12-29T04:22:24.635Z,19.72
2016-12-29T04:24:22.318Z,19.67
2016-12-29T04:25:02.812Z,19.7
2016-12-29T04:25:43.293Z,19.64
2016-12-29T04:26:23.779Z,19.75
2016-12-29T04:27:04.272Z,19.7
2016-12-29T04:27:44.759Z,19.74
2016-12-29T04:28:25.258Z,19.65
2016-12-29T04:29:05.723Z,19.67
2016-12-29T04:29:46.211Z,19.68
2016-12-29T04:30:26.713Z,19.65
2016-12-29T04:31:07.186Z,19.74
2016-12-29T04:31:47.681Z,19.65
2016-12-29T04:32:28.188Z,19.65
2016-12-29T04:33:08.674Z,19.65
2016-12-29T04:33:49.158Z,19.65
2016-12-29T04:34:29.640Z,19.63
2016-12-29T04:35:10.135Z,19.64
2016-12-29T04:35:50.620Z,19.67
2016-12-29T04:36:31.117Z,19.65
2016-12-29T04:37:11.606Z,19.64
2016-12-29T04:37:52.092Z,19.67
2016-12-29T04:38:32.597Z,19.7
2016-12-29T04:39:13.081Z,19.65
2016-12-29T04:39:53.570Z,19.71
2016-12-29T04:40:34.066Z,19.65
2016-12-29T04:41:14.567Z,19.74
2016-12-29T04:41:55.071Z,19.65
2016-12-29T04:42:35.575Z,19.64
2016-12-29T04:43:16.073Z,19.63
2016-12-29T04:43:56.569Z,19.7
2016-12-29T04:44:37.066Z,19.74
2016-12-29T04:45:17.556Z,19.63
2016-12-29T04:45:58.046Z,19.75
2016-12-29T04:46:38.522Z,19.67
2016-12-29T04:47:19.017Z,19.68
2016-12-29T04:47:59.515Z,19.61
2016-12-29T04:48:40.005Z,19.61
2016-12-29T04:49:20.514Z,19.64
2016-12-29T04:50:01.003Z,19.78
2016-12-29T04:50:41.491Z,19.7
2016-12-29T04:51:22.000Z,19.7
2016-12-29T04:52:02.489Z,19.68
2016-12-29T04:52:42.981Z,19.63
2016-12-29T04:53:23.488Z,19.63
2016-12-29T04:54:03.981Z,19.74
2016-12-29T04:54:44.484Z,19.64
2016-12-29T04:55:24.961Z,19.7
2016-12-29T04:56:05.444Z,19.78
2016-12-29T04:56:45.932Z,19.71
2016-12-29T04:57:26.420Z,19.68
2016-12-29T04:58:06.908Z,19.7
2016-12-29T04:58:47.404Z,19.65
2016-12-29T04:59:27.890Z,19.65
2016-12-29T05:00:08.378Z,19.7
2016-12-29T05:00:48.865Z,19.72
2016-12-29T05:01:29.356Z,19.72
2016-12-29T05:02:09.850Z,19.7
2016-12-29T05:02:50.342Z,19.72
2016-12-29T05:03:30.848Z,19.75
2016-12-29T05:04:11.344Z,19.72
2016-12-29T05:04:51.848Z,19.71
2016-12-29T05:05:32.332Z,19.72
2016-12-29T05:06:12.820Z,19.71
2016-12-29T05:06:53.309Z,19.63
2016-12-29T05:07:33.821Z,19.6
2016-12-29T05:08:14.311Z,19.65
2016-12-29T05:08:54.821Z,19.64
2016-12-29T05:09:35.301Z,19.68
2016-12-29T05:10:15.792Z,19.68
2016-12-29T05:10:56.293Z,19.72
2016-12-29T05:11:36.783Z,19.67
2016-12-29T05:12:17.288Z,19.74
2016-12-29T05:12:57.777Z,19.65
2016-12-29T05:13:38.264Z,19.7
2016-12-29T05:14:18.753Z,19.68
2016-12-29T05:14:59.240Z,19.72
2016-12-29T05:15:39.730Z,19.65
2016-12-29T05:16:20.224Z,19.68
2016-12-29T05:17:00.729Z,19.68
2016-12-29T05:17:41.235Z,19.64
2016-12-29T05:18:21.734Z,19.74
2016-12-29T05:19:02.223Z,19.7
2016-12-29T05:19:42.709Z,19.71
2016-12-29T05:20:23.204Z,19.71
2016-12-29T05:21:03.705Z,19.68
2016-12-29T05:21:44.193Z,19.67
2016-12-29T05:22:24.696Z,19.72
2016-12-29T05:23:05.189Z,19.61
2016-12-29T05:23:45.680Z,19.71
2016-12-29T05:24:26.174Z,19.67
2016-12-29T05:25:06.667Z,19.75
2016-12-29T05:25:47.394Z,19.71
2016-12-29T05:26:27.895Z,19.7
2016-12-29T05:27:08.378Z,19.68
2016-12-29T05:27:48.867Z,19.74
2016-12-29T05:28:29.356Z,19.65
2016-12-29T05:29:09.839Z,19.72
2016-12-29T05:29:50.347Z,19.68
2016-12-29T05:30:30.836Z,19.65
2016-12-29T05:31:11.328Z,19.64
2016-12-29T05:31:51.821Z,19.7
2016-12-29T05:32:32.309Z,19.65
2016-12-29T05:33:12.796Z,19.64
2016-12-29T05:33:53.281Z,19.65
2016-12-29T05:34:33.770Z,19.68
2016-12-29T05:35:14.270Z,19.6
2016-12-29T05:35:54.761Z,19.68
2016-12-29T05:36:35.250Z,19.71
2016-12-29T05:37:15.766Z,19.68
2016-12-29T05:37:56.232Z,19.67
2016-12-29T05:38:36.720Z,19.72
2016-12-29T05:39:17.203Z,19.72
2016-12-29T05:39:57.688Z,19.67
2016-12-29T05:40:38.185Z,19.72
2016-12-29T05:41:18.685Z,19.65
2016-12-29T05:41:59.169Z,19.7
2016-12-29T05:42:39.661Z,19.7
2016-12-29T05:43:20.152Z,19.75
2016-12-29T05:44:00.653Z,19.67
2016-12-29T05:44:41.154Z,19.68
2016-12-29T05:45:21.662Z,19.72
2016-12-29T05:46:02.154Z,19.68
2016-12-29T05:46:42.644Z,19.7
2016-12-29T05:47:23.132Z,19.65
2016-12-29T05:48:03.624Z,19.67
2016-12-29T05:48:44.127Z,19.72
2016-12-29T05:49:24.604Z,19.65
2016-12-29T05:50:05.103Z,19.72
2016-12-29T05:50:45.601Z,19.67
2016-12-29T05:51:26.101Z,19.71
2016-12-29T05:52:06.597Z,19.78
2016-12-29T05:52:47.120Z,19.65
2016-12-29T05:53:27.603Z,19.7
2016-12-29T05:54:08.100Z,19.68
2016-12-29T05:54:48.586Z,19.65
2016-12-29T05:55:29.072Z,19.68
2016-12-29T05:56:09.566Z,19.65
2016-12-29T05:56:50.050Z,19.68
2016-12-29T05:57:30.543Z,19.67
2016-12-29T05:58:11.041Z,19.72
2016-12-29T05:58:51.534Z,19.71
2016-12-29T05:59:32.039Z,19.72
2016-12-29T06:00:12.538Z,19.61
2016-12-29T06:00:53.026Z,19.68
2016-12-29T06:01:33.526Z,19.65
2016-12-29T06:02:14.014Z,19.67
2016-12-29T06:02:54.493Z,19.65
2016-12-29T06:03:34.976Z,19.7
2016-12-29T06:04:15.463Z,19.65
2016-12-29T06:04:55.951Z,19.72
2016-12-29T06:05:36.458Z,19.75
2016-12-29T06:06:16.938Z,19.6
2016-12-29T06:06:57.434Z,19.56
2016-12-29T06:07:37.930Z,19.7
2016-12-29T06:08:18.426Z,19.65
2016-12-29T06:08:58.935Z,19.7
2016-12-29T06:09:39.432Z,19.71
2016-12-29T06:10:19.923Z,19.71
2016-12-29T06:11:00.425Z,19.68
2016-12-29T06:11:41.236Z,19.71
2016-12-29T06:12:21.723Z,19.67
2016-12-29T06:13:02.227Z,19.61
2016-12-29T06:13:42.735Z,19.65
2016-12-29T06:14:23.227Z,19.6
2016-12-29T06:15:03.736Z,19.7
2016-12-29T06:15:44.232Z,19.68
2016-12-29T06:16:24.725Z,19.61
2016-12-29T06:17:05.228Z,19.7
2016-12-29T06:17:45.721Z,19.56
2016-12-29T06:18:26.204Z,19.61
2016-12-29T06:19:06.687Z,19.63
2016-12-29T06:19:47.181Z,19.65
2016-12-29T06:20:27.677Z,19.6
2016-12-29T06:21:08.164Z,19.68
2016-12-29T06:21:48.651Z,19.64
2016-12-29T06:22:29.133Z,19.72
2016-12-29T06:23:09.631Z,19.67
2016-12-29T06:23:50.125Z,19.68
2016-12-29T06:24:30.608Z,19.67
2016-12-29T06:25:11.097Z,19.68
2016-12-29T06:25:51.593Z,19.68
2016-12-29T06:26:32.085Z,19.6
2016-12-29T06:27:12.572Z,19.64
2016-12-29T06:27:53.073Z,19.68
2016-12-29T06:28:33.565Z,19.6
2016-12-29T06:29:14.053Z,19.68
2016-12-29T06:29:54.544Z,19.72
2016-12-29T06:30:35.034Z,19.67
2016-12-29T06:31:15.532Z,19.6
2016-12-29T06:31:56.319Z,19.65
2016-12-29T06:32:36.823Z,19.63
2016-12-29T06:33:17.316Z,19.61
2016-12-29T06:33:57.804Z,19.7
2016-12-29T06:34:38.294Z,19.71
2016-12-29T06:35:18.788Z,19.6
2016-12-29T06:35:59.289Z,19.6
2016-12-29T06:36:39.771Z,19.71
2016-12-29T06:37:20.262Z,19.57
2016-12-29T06:38:00.759Z,19.6
2016-12-29T06:38:41.250Z,19.71
2016-12-29T06:39:21.737Z,19.68
2016-12-29T06:40:02.234Z,19.64
2016-12-29T06:40:42.726Z,19.72
2016-12-29T06:41:23.212Z,19.7
2016-12-29T06:42:03.701Z,19.61
2016-12-29T06:42:44.192Z,19.68
2016-12-29T06:43:24.695Z,19.71
2016-12-29T06:44:05.182Z,19.65
2016-12-29T06:44:45.677Z,19.7
2016-12-29T06:45:26.178Z,19.67
2016-12-29T06:46:06.661Z,19.7
2016-12-29T06:46:47.155Z,19.6
2016-12-29T06:47:27.652Z,19.6
2016-12-29T06:48:08.138Z,19.6
2016-12-29T06:48:48.625Z,19.64
2016-12-29T06:49:29.121Z,19.64
2016-12-29T06:50:09.620Z,19.64
2016-12-29T06:50:50.104Z,19.67
2016-12-29T06:51:30.590Z,19.67
2016-12-29T06:52:11.090Z,19.61
2016-12-29T06:52:51.589Z,19.61
2016-12-29T06:53:32.100Z,19.68
2016-12-29T06:54:12.595Z,19.64
2016-12-29T06:54:53.093Z,19.67
2016-12-29T06:55:33.585Z,19.68
2016-12-29T06:56:14.088Z,19.68
2016-12-29T06:56:54.593Z,19.55
2016-12-29T06:57:35.443Z,19.61
2016-12-29T06:58:15.941Z,19.6
2016-12-29T06:58:56.442Z,19.6
2016-12-29T06:59:36.945Z,19.57
2016-12-29T07:01:34.613Z,19.71
2016-12-29T07:02:15.111Z,19.57
2016-12-29T07:02:55.599Z,19.61
2016-12-29T07:03:36.090Z,19.64
2016-12-29T07:04:16.576Z,19.56
2016-12-29T07:04:57.069Z,19.61
2016-12-29T07:05:37.567Z,19.67
2016-12-29T07:06:18.051Z,19.61
2016-12-29T07:06:58.540Z,19.57
2016-12-29T07:07:39.027Z,19.64
2016-12-29T07:08:19.517Z,19.6
2016-12-29T07:09:00.014Z,19.6
2016-12-29T07:09:40.501Z,19.67
2016-12-29T07:10:20.983Z,19.74
2016-12-29T07:11:01.490Z,19.71
2016-12-29T07:11:41.984Z,19.68
2016-12-29T07:12:22.479Z,19.7
2016-12-29T07:13:02.991Z,19.7
2016-12-29T07:13:43.491Z,19.6
2016-12-29T07:14:23.987Z,19.68
2016-12-29T07:15:04.490Z,19.71
2016-12-29T07:15:44.981Z,19.7
2016-12-29T07:16:25.467Z,19.63
2016-12-29T07:17:05.955Z,19.68
2016-12-29T07:17:46.458Z,19.63
2016-12-29T07:18:26.940Z,19.68
2016-12-29T07:19:07.430Z,19.65
2016-12-29T07:19:47.936Z,19.7
2016-12-29T07:20:28.441Z,19.71
2016-12-29T07:21:08.927Z,19.6
2016-12-29T07:21:49.428Z,19.63
2016-12-29T07:22:29.933Z,19.7
2016-12-29T07:23:10.424Z,19.72
2016-12-29T07:23:50.934Z,19.64
2016-12-29T07:24:31.421Z,19.6
2016-12-29T07:25:11.906Z,19.61
2016-12-29T07:25:52.385Z,19.68
2016-12-29T07:26:32.882Z,19.71
2016-12-29T07:27:13.378Z,19.56
2016-12-29T07:27:54.162Z,19.6
2016-12-29T07:28:34.657Z,19.71
2016-12-29T07:29:15.143Z,19.7
2016-12-29T07:29:55.637Z,19.6
2016-12-29T07:30:36.130Z,19.63
2016-12-29T07:31:16.624Z,19.61
2016-12-29T07:31:57.121Z,19.68
2016-12-29T07:32:37.625Z,19.64
2016-12-29T07:33:18.135Z,19.6
2016-12-29T07:33:58.622Z,19.61
2016-12-29T07:34:39.126Z,19.6
2016-12-29T07:35:19.617Z,19.6
2016-12-29T07:36:00.124Z,19.64
2016-12-29T07:36:40.611Z,19.64
2016-12-29T07:37:21.100Z,19.68
2016-12-29T07:38:01.581Z,19.68
2016-12-29T07:38:42.072Z,19.7
2016-12-29T07:39:22.567Z,19.71
2016-12-29T07:40:03.057Z,19.7
2016-12-29T07:40:43.545Z,19.71
2016-12-29T07:41:24.029Z,19.64
2016-12-29T07:42:04.520Z,19.68
2016-12-29T07:42:45.016Z,19.65
2016-12-29T07:43:25.501Z,19.64
2016-12-29T07:44:05.993Z,19.63
2016-12-29T07:44:46.484Z,19.65
2016-12-29T07:45:26.989Z,19.67
2016-12-29T07:46:07.471Z,19.67
2016-12-29T07:46:47.964Z,19.72
2016-12-29T07:47:28.459Z,19.65
2016-12-29T07:48:08.951Z,19.65
2016-12-29T07:48:49.451Z,19.67
2016-12-29T07:49:29.952Z,19.61
2016-12-29T07:50:10.453Z,19.65
2016-12-29T07:50:50.957Z,19.65
2016-12-29T07:51:31.461Z,19.61
2016-12-29T07:52:11.943Z,19.67
2016-12-29T07:52:52.570Z,19.65
2016-12-29T07:53:33.078Z,19.7
2016-12-29T07:54:13.557Z,19.68
2016-12-29T07:54:54.769Z,19.63
2016-12-29T07:55:35.275Z,19.65
2016-12-29T07:56:15.771Z,19.7
2016-12-29T07:56:56.271Z,19.67
2016-12-29T07:57:36.756Z,19.63
2016-12-29T07:58:17.482Z,19.68
2016-12-29T07:58:57.965Z,19.64
2016-12-29T07:59:38.452Z,19.67
2016-12-29T08:00:18.947Z,19.63
2016-12-29T08:00:59.440Z,19.65
2016-12-29T08:01:39.933Z,19.64
2016-12-29T08:02:20.422Z,19.64
2016-12-29T08:03:00.917Z,19.65
2016-12-29T08:03:41.404Z,19.71
2016-12-29T08:04:21.897Z,19.65
2016-12-29T08:05:02.389Z,19.7
2016-12-29T08:05:42.885Z,19.68
2016-12-29T08:06:23.370Z,19.68
2016-12-29T08:07:03.867Z,19.74
2016-12-29T08:07:44.362Z,19.72
2016-12-29T08:08:24.858Z,19.72
2016-12-29T08:09:05.354Z,19.7
2016-12-29T08:09:45.847Z,19.61
2016-12-29T08:10:26.335Z,19.71
2016-12-29T08:11:06.822Z,19.72
2016-12-29T08:11:47.314Z,19.74
2016-12-29T08:12:27.808Z,19.74
2016-12-29T08:13:08.305Z,19.67
2016-12-29T08:13:48.803Z,19.72
2016-12-29T08:14:29.303Z,19.72
2016-12-29T08:15:09.809Z,19.67
2016-12-29T08:15:50.297Z,19.8
2016-12-29T08:16:30.783Z,19.75
2016-12-29T08:17:11.277Z,19.75
2016-12-29T08:17:51.773Z,19.8
2016-12-29T08:18:32.255Z,19.74
2016-12-29T08:19:12.736Z,19.83
2016-12-29T08:19:53.223Z,19.8
2016-12-29T08:20:33.715Z,19.85
2016-12-29T08:21:14.201Z,19.79
2016-12-29T08:21:54.697Z,19.83
2016-12-29T08:22:35.183Z,19.83
2016-12-29T08:23:15.672Z,19.86
2016-12-29T08:23:56.342Z,19.9
2016-12-29T08:24:36.851Z,19.85
2016-12-29T08:25:17.347Z,19.87
2016-12-29T08:25:57.836Z,19.86
2016-12-29T08:26:38.323Z,19.85
2016-12-29T08:27:18.820Z,19.89
2016-12-29T08:27:59.315Z,19.86
2016-12-29T08:28:39.798Z,19.98
2016-12-29T08:29:20.292Z,20.01
2016-12-29T08:30:00.791Z,19.92
2016-12-29T08:30:41.287Z,19.97
2016-12-29T08:31:21.774Z,19.98
2016-12-29T08:32:02.265Z,19.95
2016-12-29T08:32:42.759Z,19.97
2016-12-29T08:33:23.244Z,20
2016-12-29T08:34:03.741Z,19.97
2016-12-29T08:34:44.232Z,19.98
2016-12-29T08:35:24.727Z,19.98
2016-12-29T08:36:05.223Z,20.04
2016-12-29T08:36:45.730Z,20.02
2016-12-29T08:37:26.229Z,20.08
2016-12-29T08:38:06.726Z,20.04
2016-12-29T08:38:47.210Z,20.05
2016-12-29T08:39:27.691Z,20.05
2016-12-29T08:40:08.210Z,20.08
2016-12-29T08:40:48.699Z,20.1
2016-12-29T08:41:29.203Z,20.1
2016-12-29T08:42:09.685Z,20.12
2016-12-29T08:42:50.179Z,20.16
2016-12-29T08:43:30.678Z,20.12
2016-12-29T08:44:11.172Z,20.15
2016-12-29T08:44:51.681Z,20.19
2016-12-29T08:45:32.165Z,20.15
2016-12-29T08:46:12.653Z,20.22
2016-12-29T08:46:53.136Z,20.23
2016-12-29T08:47:33.629Z,20.22
2016-12-29T08:48:14.120Z,20.26
2016-12-29T08:48:54.598Z,20.29
2016-12-29T08:49:35.096Z,20.25
2016-12-29T08:50:15.590Z,20.32